sensor_id;sensor_type;location;lat;lon;timestamp;pressure;altitude;pressure_sealevel;temperature;humidity
71107;BME280;58763;47.982;11.516;2023-04-28T00:00:10;94125.88;;;8.86;72.04
71107;BME280;58763;47.982;11.516;2023-04-28T00:02:36;94123.44;;;8.84;72.08
71107;BME280;58763;47.982;11.516;2023-04-28T00:05:02;94133.94;;;8.86;72.08
71107;BME280;58763;47.982;11.516;2023-04-28T00:07:27;94127.44;;;8.92;72.25
71107;BME280;58763;47.982;11.516;2023-04-28T00:09:53;94122.88;;;8.92;72.42
71107;BME280;58763;47.982;11.516;2023-04-28T00:12:18;94122.88;;;8.92;72.33
71107;BME280;58763;47.982;11.516;2023-04-28T00:14:43;94112.88;;;8.98;72.54
71107;BME280;58763;47.982;11.516;2023-04-28T00:17:09;94123.91;;;9.01;72.35
71107;BME280;58763;47.982;11.516;2023-04-28T00:19:35;94110.69;;;9.00;72.56
71107;BME280;58763;47.982;11.516;2023-04-28T00:22:00;94107.47;;;9.03;72.60
71107;BME280;58763;47.982;11.516;2023-04-28T00:24:25;94095.31;;;9.00;72.52
71107;BME280;58763;47.982;11.516;2023-04-28T00:26:51;94106.03;;;9.11;72.49
71107;BME280;58763;47.982;11.516;2023-04-28T00:29:16;94099.88;;;9.05;72.65
71107;BME280;58763;47.982;11.516;2023-04-28T00:31:43;94103.38;;;9.05;72.92
71107;BME280;58763;47.982;11.516;2023-04-28T00:34:08;94093.13;;;9.08;72.57
71107;BME280;58763;47.982;11.516;2023-04-28T00:36:38;94097.16;;;9.10;72.18
71107;BME280;58763;47.982;11.516;2023-04-28T00:39:04;94091.50;;;9.07;72.44
71107;BME280;58763;47.982;11.516;2023-04-28T00:41:29;94087.78;;;8.97;72.19
71107;BME280;58763;47.982;11.516;2023-04-28T00:43:54;94090.50;;;8.92;72.42
71107;BME280;58763;47.982;11.516;2023-04-28T00:46:23;94090.25;;;8.89;72.54
71107;BME280;58763;47.982;11.516;2023-04-28T00:48:49;94077.84;;;8.88;72.94
71107;BME280;58763;47.982;11.516;2023-04-28T00:51:15;94086.75;;;8.93;72.78
71107;BME280;58763;47.982;11.516;2023-04-28T00:53:42;94085.63;;;8.94;72.91
71107;BME280;58763;47.982;11.516;2023-04-28T00:56:08;94089.16;;;8.90;73.31
71107;BME280;58763;47.982;11.516;2023-04-28T00:58:33;94088.94;;;8.86;73.66
71107;BME280;58763;47.982;11.516;2023-04-28T01:01:05;94090.59;;;8.72;74.87
71107;BME280;58763;47.982;11.516;2023-04-28T01:03:33;94082.00;;;8.70;75.47
71107;BME280;58763;47.982;11.516;2023-04-28T01:06:00;94080.97;;;8.56;75.79
71107;BME280;58763;47.982;11.516;2023-04-28T01:08:29;94085.00;;;8.59;75.99
71107;BME280;58763;47.982;11.516;2023-04-28T01:10:55;94079.31;;;8.65;75.83
71107;BME280;58763;47.982;11.516;2023-04-28T01:13:21;94075.81;;;8.60;76.18
71107;BME280;58763;47.982;11.516;2023-04-28T01:15:46;94073.66;;;8.57;76.48
71107;BME280;58763;47.982;11.516;2023-04-28T01:18:12;94073.94;;;8.60;76.75
71107;BME280;58763;47.982;11.516;2023-04-28T01:20:37;94061.59;;;8.44;76.66
71107;BME280;58763;47.982;11.516;2023-04-28T01:23:03;94065.13;;;8.34;77.73
71107;BME280;58763;47.982;11.516;2023-04-28T01:25:28;94063.78;;;8.42;77.53
71107;BME280;58763;47.982;11.516;2023-04-28T01:27:55;94061.38;;;8.30;77.81
71107;BME280;58763;47.982;11.516;2023-04-28T01:30:20;94056.25;;;8.34;78.28
71107;BME280;58763;47.982;11.516;2023-04-28T01:32:45;94050.84;;;8.34;78.33
71107;BME280;58763;47.982;11.516;2023-04-28T01:35:11;94056.22;;;8.39;77.94
71107;BME280;58763;47.982;11.516;2023-04-28T01:37:36;94041.44;;;8.31;78.16
71107;BME280;58763;47.982;11.516;2023-04-28T01:40:02;94043.31;;;8.36;78.36
71107;BME280;58763;47.982;11.516;2023-04-28T01:42:28;94047.09;;;8.35;78.67
71107;BME280;58763;47.982;11.516;2023-04-28T01:44:53;94040.88;;;8.45;78.10
71107;BME280;58763;47.982;11.516;2023-04-28T01:47:18;94048.66;;;8.46;78.12
71107;BME280;58763;47.982;11.516;2023-04-28T01:49:44;94047.03;;;8.45;78.53
71107;BME280;58763;47.982;11.516;2023-04-28T01:52:12;94042.47;;;8.46;78.65
71107;BME280;58763;47.982;11.516;2023-04-28T01:54:37;94042.44;;;8.51;78.16
71107;BME280;58763;47.982;11.516;2023-04-28T01:57:03;94039.75;;;8.46;78.14
71107;BME280;58763;47.982;11.516;2023-04-28T01:59:28;94028.22;;;8.40;78.83
71107;BME280;58763;47.982;11.516;2023-04-28T02:01:53;94030.31;;;8.48;78.68
71107;BME280;58763;47.982;11.516;2023-04-28T02:04:19;94032.47;;;8.51;78.41
71107;BME280;58763;47.982;11.516;2023-04-28T02:06:44;94031.63;;;8.61;77.70
71107;BME280;58763;47.982;11.516;2023-04-28T02:09:10;94040.22;;;8.68;77.77
71107;BME280;58763;47.982;11.516;2023-04-28T02:11:35;94043.66;;;8.78;76.95
71107;BME280;58763;47.982;11.516;2023-04-28T02:14:01;94036.69;;;8.72;77.40
71107;BME280;58763;47.982;11.516;2023-04-28T02:16:26;94049.06;;;8.78;77.27
71107;BME280;58763;47.982;11.516;2023-04-28T02:18:51;94046.53;;;8.97;76.64
71107;BME280;58763;47.982;11.516;2023-04-28T02:21:17;94048.97;;;8.93;76.71
71107;BME280;58763;47.982;11.516;2023-04-28T02:23:42;94048.63;;;9.10;75.96
71107;BME280;58763;47.982;11.516;2023-04-28T02:26:07;94047.81;;;9.10;75.66
71107;BME280;58763;47.982;11.516;2023-04-28T02:28:33;94053.50;;;9.03;75.91
71107;BME280;58763;47.982;11.516;2023-04-28T02:31:03;94050.06;;;8.92;76.64
71107;BME280;58763;47.982;11.516;2023-04-28T02:33:29;94040.84;;;8.98;76.81
71107;BME280;58763;47.982;11.516;2023-04-28T02:35:58;94041.47;;;8.85;76.90
71107;BME280;58763;47.982;11.516;2023-04-28T02:38:24;94039.31;;;8.82;77.04
71107;BME280;58763;47.982;11.516;2023-04-28T02:40:56;94040.09;;;8.88;77.04
71107;BME280;58763;47.982;11.516;2023-04-28T02:43:22;94031.81;;;8.79;77.39
71107;BME280;58763;47.982;11.516;2023-04-28T02:45:48;94035.53;;;8.88;77.11
71107;BME280;58763;47.982;11.516;2023-04-28T02:48:13;94032.84;;;8.83;77.14
71107;BME280;58763;47.982;11.516;2023-04-28T02:50:39;94028.78;;;8.91;77.18
71107;BME280;58763;47.982;11.516;2023-04-28T02:53:04;94019.66;;;8.82;77.06
71107;BME280;58763;47.982;11.516;2023-04-28T02:55:30;94019.34;;;8.88;76.85
71107;BME280;58763;47.982;11.516;2023-04-28T02:57:56;94020.09;;;8.94;76.60
71107;BME280;58763;47.982;11.516;2023-04-28T03:00:21;94024.97;;;8.92;76.74
71107;BME280;58763;47.982;11.516;2023-04-28T03:02:47;94013.31;;;9.01;75.62
71107;BME280;58763;47.982;11.516;2023-04-28T03:05:12;94021.44;;;8.96;76.21
71107;BME280;58763;47.982;11.516;2023-04-28T03:07:37;94015.81;;;8.93;76.53
71107;BME280;58763;47.982;11.516;2023-04-28T03:10:03;94016.56;;;8.98;76.25
71107;BME280;58763;47.982;11.516;2023-04-28T03:12:29;94006.34;;;8.95;77.02
71107;BME280;58763;47.982;11.516;2023-04-28T03:14:54;94008.53;;;8.93;76.55
71107;BME280;58763;47.982;11.516;2023-04-28T03:17:20;94010.38;;;9.03;76.61
71107;BME280;58763;47.982;11.516;2023-04-28T03:19:45;94003.06;;;9.03;76.35
71107;BME280;58763;47.982;11.516;2023-04-28T03:22:10;94011.97;;;9.04;76.86
71107;BME280;58763;47.982;11.516;2023-04-28T03:24:36;94011.63;;;9.11;76.33
71107;BME280;58763;47.982;11.516;2023-04-28T03:27:01;94006.69;;;9.23;76.34
71107;BME280;58763;47.982;11.516;2023-04-28T03:29:28;94010.53;;;9.17;76.57
71107;BME280;58763;47.982;11.516;2023-04-28T03:31:54;94009.41;;;9.23;76.49
71107;BME280;58763;47.982;11.516;2023-04-28T03:34:19;93994.38;;;9.12;77.08
71107;BME280;58763;47.982;11.516;2023-04-28T03:36:44;93998.97;;;9.11;77.40
71107;BME280;58763;47.982;11.516;2023-04-28T03:39:10;93995.22;;;9.07;77.83
71107;BME280;58763;47.982;11.516;2023-04-28T03:41:35;93988.50;;;9.04;77.67
71107;BME280;58763;47.982;11.516;2023-04-28T03:44:01;93981.50;;;8.98;77.45
71107;BME280;58763;47.982;11.516;2023-04-28T03:46:26;93972.94;;;8.91;77.31
71107;BME280;58763;47.982;11.516;2023-04-28T03:48:51;93979.47;;;8.80;78.17
71107;BME280;58763;47.982;11.516;2023-04-28T03:51:17;93994.06;;;8.79;79.06
71107;BME280;58763;47.982;11.516;2023-04-28T03:53:43;94003.16;;;8.88;78.83
71107;BME280;58763;47.982;11.516;2023-04-28T03:56:08;94019.34;;;8.88;79.35
71107;BME280;58763;47.982;11.516;2023-04-28T03:58:34;94019.31;;;8.93;79.23
71107;BME280;58763;47.982;11.516;2023-04-28T04:00:59;94018.66;;;9.12;79.08
71107;BME280;58763;47.982;11.516;2023-04-28T04:03:25;94003.56;;;9.05;78.98
71107;BME280;58763;47.982;11.516;2023-04-28T04:05:51;94006.84;;;9.02;79.71
71107;BME280;58763;47.982;11.516;2023-04-28T04:08:18;93999.50;;;9.08;79.56
71107;BME280;58763;47.982;11.516;2023-04-28T04:10:43;93991.69;;;9.12;79.48
71107;BME280;58763;47.982;11.516;2023-04-28T04:13:09;93969.78;;;9.18;79.42
71107;BME280;58763;47.982;11.516;2023-04-28T04:15:34;93974.94;;;9.15;79.39
71107;BME280;58763;47.982;11.516;2023-04-28T04:18:00;93983.31;;;9.13;79.75
71107;BME280;58763;47.982;11.516;2023-04-28T04:20:26;93995.72;;;9.14;79.38
71107;BME280;58763;47.982;11.516;2023-04-28T04:22:51;93993.28;;;9.13;79.20
71107;BME280;58763;47.982;11.516;2023-04-28T04:25:16;93997.06;;;9.12;79.14
71107;BME280;58763;47.982;11.516;2023-04-28T04:27:42;93994.19;;;9.03;79.86
71107;BME280;58763;47.982;11.516;2023-04-28T04:30:08;94000.81;;;9.16;79.96
71107;BME280;58763;47.982;11.516;2023-04-28T04:32:33;94007.16;;;9.35;79.68
71107;BME280;58763;47.982;11.516;2023-04-28T04:34:59;94013.09;;;9.32;80.16
71107;BME280;58763;47.982;11.516;2023-04-28T04:37:24;94009.38;;;9.28;79.93
71107;BME280;58763;47.982;11.516;2023-04-28T04:39:49;94010.50;;;9.22;80.34
71107;BME280;58763;47.982;11.516;2023-04-28T04:42:15;94001.56;;;9.26;80.27
71107;BME280;58763;47.982;11.516;2023-04-28T04:44:40;94003.03;;;9.09;80.55
71107;BME280;58763;47.982;11.516;2023-04-28T04:47:06;94004.69;;;9.04;81.20
71107;BME280;58763;47.982;11.516;2023-04-28T04:49:31;94007.31;;;9.15;80.56
71107;BME280;58763;47.982;11.516;2023-04-28T04:51:57;94016.44;;;9.19;80.50
71107;BME280;58763;47.982;11.516;2023-04-28T04:54:22;94017.50;;;9.23;80.57
71107;BME280;58763;47.982;11.516;2023-04-28T04:56:47;94019.16;;;9.19;80.29
71107;BME280;58763;47.982;11.516;2023-04-28T04:59:13;94007.31;;;9.15;80.63
71107;BME280;58763;47.982;11.516;2023-04-28T05:01:38;94004.34;;;9.11;81.37
71107;BME280;58763;47.982;11.516;2023-04-28T05:04:04;94012.97;;;9.13;81.64
71107;BME280;58763;47.982;11.516;2023-04-28T05:06:29;94010.03;;;9.10;82.08
71107;BME280;58763;47.982;11.516;2023-04-28T05:08:56;94016.72;;;9.17;81.87
71107;BME280;58763;47.982;11.516;2023-04-28T05:11:22;94011.81;;;9.24;81.55
71107;BME280;58763;47.982;11.516;2023-04-28T05:13:48;94019.34;;;9.27;80.64
71107;BME280;58763;47.982;11.516;2023-04-28T05:16:13;94020.00;;;9.14;80.94
71107;BME280;58763;47.982;11.516;2023-04-28T05:18:39;94026.47;;;9.13;81.24
71107;BME280;58763;47.982;11.516;2023-04-28T05:21:04;94032.88;;;9.22;80.86
71107;BME280;58763;47.982;11.516;2023-04-28T05:23:30;94047.09;;;9.33;80.80
71107;BME280;58763;47.982;11.516;2023-04-28T05:25:56;94041.22;;;9.26;80.17
71107;BME280;58763;47.982;11.516;2023-04-28T05:28:22;94038.75;;;9.29;79.39
71107;BME280;58763;47.982;11.516;2023-04-28T05:30:47;94043.88;;;9.31;79.58
71107;BME280;58763;47.982;11.516;2023-04-28T05:33:12;94036.66;;;9.21;80.33
71107;BME280;58763;47.982;11.516;2023-04-28T05:35:38;94033.16;;;9.21;80.15
71107;BME280;58763;47.982;11.516;2023-04-28T05:38:03;94036.22;;;9.04;80.32
71107;BME280;58763;47.982;11.516;2023-04-28T05:40:29;94038.59;;;9.11;80.28
71107;BME280;58763;47.982;11.516;2023-04-28T05:42:54;94038.13;;;9.03;80.70
71107;BME280;58763;47.982;11.516;2023-04-28T05:45:20;94033.56;;;8.99;80.50
71107;BME280;58763;47.982;11.516;2023-04-28T05:47:46;94041.47;;;8.85;81.71
71107;BME280;58763;47.982;11.516;2023-04-28T05:50:11;94059.59;;;8.75;82.81
71107;BME280;58763;47.982;11.516;2023-04-28T05:52:37;94063.66;;;8.72;83.18
71107;BME280;58763;47.982;11.516;2023-04-28T05:55:02;94060.16;;;8.67;83.43
71107;BME280;58763;47.982;11.516;2023-04-28T05:57:28;94060.97;;;8.67;82.90
71107;BME280;58763;47.982;11.516;2023-04-28T05:59:54;94059.09;;;8.68;82.78
71107;BME280;58763;47.982;11.516;2023-04-28T06:02:19;94062.03;;;8.66;83.96
71107;BME280;58763;47.982;11.516;2023-04-28T06:04:44;94050.69;;;8.74;83.86
71107;BME280;58763;47.982;11.516;2023-04-28T06:07:10;94054.75;;;8.72;83.41
71107;BME280;58763;47.982;11.516;2023-04-28T06:09:35;94057.66;;;8.80;83.63
71107;BME280;58763;47.982;11.516;2023-04-28T06:12:01;94064.16;;;8.79;84.26
71107;BME280;58763;47.982;11.516;2023-04-28T06:14:28;94066.31;;;8.77;84.24
71107;BME280;58763;47.982;11.516;2023-04-28T06:16:53;94066.84;;;8.79;84.59
71107;BME280;58763;47.982;11.516;2023-04-28T06:19:19;94066.84;;;8.79;84.64
71107;BME280;58763;47.982;11.516;2023-04-28T06:21:45;94065.75;;;8.80;85.56
71107;BME280;58763;47.982;11.516;2023-04-28T06:24:11;94059.31;;;8.76;86.02
71107;BME280;58763;47.982;11.516;2023-04-28T06:26:36;94052.28;;;8.75;86.29
71107;BME280;58763;47.982;11.516;2023-04-28T06:29:02;94059.84;;;8.73;86.52
71107;BME280;58763;47.982;11.516;2023-04-28T06:31:28;94062.28;;;8.75;86.59
71107;BME280;58763;47.982;11.516;2023-04-28T06:33:53;94052.00;;;8.82;86.55
71107;BME280;58763;47.982;11.516;2023-04-28T06:36:19;94049.56;;;8.85;87.06
71107;BME280;58763;47.982;11.516;2023-04-28T06:38:44;94054.38;;;8.93;86.69
71107;BME280;58763;47.982;11.516;2023-04-28T06:41:10;94044.84;;;9.06;86.28
71107;BME280;58763;47.982;11.516;2023-04-28T06:43:36;94039.19;;;9.08;86.51
71107;BME280;58763;47.982;11.516;2023-04-28T06:46:02;94045.63;;;9.12;86.92
71107;BME280;58763;47.982;11.516;2023-04-28T06:48:28;94044.59;;;9.08;87.95
71107;BME280;58763;47.982;11.516;2023-04-28T06:50:53;94045.16;;;8.99;88.82
71107;BME280;58763;47.982;11.516;2023-04-28T06:53:19;94038.69;;;9.00;89.44
71107;BME280;58763;47.982;11.516;2023-04-28T06:55:44;94042.16;;;9.06;89.53
71107;BME280;58763;47.982;11.516;2023-04-28T06:58:10;94038.13;;;9.03;89.75
71107;BME280;58763;47.982;11.516;2023-04-28T07:00:35;94027.66;;;8.97;90.53
71107;BME280;58763;47.982;11.516;2023-04-28T07:03:01;94020.91;;;8.94;90.62
71107;BME280;58763;47.982;11.516;2023-04-28T07:05:26;94019.56;;;8.97;90.99
71107;BME280;58763;47.982;11.516;2023-04-28T07:07:53;94015.25;;;8.96;91.66
71107;BME280;58763;47.982;11.516;2023-04-28T07:10:18;94009.56;;;9.02;92.33
71107;BME280;58763;47.982;11.516;2023-04-28T07:12:44;94020.03;;;9.09;92.16
71107;BME280;58763;47.982;11.516;2023-04-28T07:15:10;94005.47;;;9.10;92.45
71107;BME280;58763;47.982;11.516;2023-04-28T07:17:36;94002.66;;;9.20;92.17
71107;BME280;58763;47.982;11.516;2023-04-28T07:20:01;94006.13;;;9.31;92.36
71107;BME280;58763;47.982;11.516;2023-04-28T07:22:28;94003.09;;;9.37;92.71
71107;BME280;58763;47.982;11.516;2023-04-28T07:24:53;94014.06;;;9.46;92.40
71107;BME280;58763;47.982;11.516;2023-04-28T07:27:19;94005.41;;;9.49;92.35
71107;BME280;58763;47.982;11.516;2023-04-28T07:29:44;93996.66;;;9.62;91.79
71107;BME280;58763;47.982;11.516;2023-04-28T07:32:10;93996.66;;;9.62;90.56
71107;BME280;58763;47.982;11.516;2023-04-28T07:34:35;94005.19;;;9.74;91.67
71107;BME280;58763;47.982;11.516;2023-04-28T07:37:02;93993.53;;;9.79;91.23
71107;BME280;58763;47.982;11.516;2023-04-28T07:39:29;94008.38;;;9.81;90.05
71107;BME280;58763;47.982;11.516;2023-04-28T07:41:55;93995.63;;;9.87;90.19
71107;BME280;58763;47.982;11.516;2023-04-28T07:44:22;94000.72;;;9.88;89.76
71107;BME280;58763;47.982;11.516;2023-04-28T07:46:48;93996.41;;;9.87;89.49
71107;BME280;58763;47.982;11.516;2023-04-28T07:49:13;93994.81;;;9.86;88.63
71107;BME280;58763;47.982;11.516;2023-04-28T07:51:39;93991.81;;;9.88;88.92
71107;BME280;58763;47.982;11.516;2023-04-28T07:54:04;93995.03;;;9.90;88.69
71107;BME280;58763;47.982;11.516;2023-04-28T07:56:30;93992.63;;;9.88;88.78
71107;BME280;58763;47.982;11.516;2023-04-28T07:58:55;94002.56;;;9.93;87.65
71107;BME280;58763;47.982;11.516;2023-04-28T08:01:21;94001.44;;;9.99;88.36
71107;BME280;58763;47.982;11.516;2023-04-28T08:03:46;93996.84;;;9.99;87.83
71107;BME280;58763;47.982;11.516;2023-04-28T08:06:12;94001.72;;;9.97;87.87
71107;BME280;58763;47.982;11.516;2023-04-28T08:08:37;93997.66;;;10.00;87.42
71107;BME280;58763;47.982;11.516;2023-04-28T08:11:03;94002.81;;;9.96;87.02
71107;BME280;58763;47.982;11.516;2023-04-28T08:13:29;94006.84;;;9.99;87.41
71107;BME280;58763;47.982;11.516;2023-04-28T08:15:55;94004.88;;;10.04;87.44
71107;BME280;58763;47.982;11.516;2023-04-28T08:18:21;93998.09;;;10.12;88.15
71107;BME280;58763;47.982;11.516;2023-04-28T08:20:47;93994.22;;;10.18;88.93
71107;BME280;58763;47.982;11.516;2023-04-28T08:23:12;93991.31;;;10.14;88.16
71107;BME280;58763;47.982;11.516;2023-04-28T08:25:38;93990.16;;;10.20;88.48
71107;BME280;58763;47.982;11.516;2023-04-28T08:28:03;93982.69;;;10.12;88.87
71107;BME280;58763;47.982;11.516;2023-04-28T08:30:30;93989.88;;;10.22;89.57
71107;BME280;58763;47.982;11.516;2023-04-28T08:32:56;93992.84;;;10.20;89.76
71107;BME280;58763;47.982;11.516;2023-04-28T08:35:21;93983.94;;;10.20;90.36
71107;BME280;58763;47.982;11.516;2023-04-28T08:37:47;93971.25;;;10.20;91.45
71107;BME280;58763;47.982;11.516;2023-04-28T08:40:14;93981.69;;;10.27;91.36
71107;BME280;58763;47.982;11.516;2023-04-28T08:42:40;93979.34;;;10.20;91.52
71107;BME280;58763;47.982;11.516;2023-04-28T08:45:06;93969.66;;;10.19;91.43
71107;BME280;58763;47.982;11.516;2023-04-28T08:47:37;93981.13;;;10.30;90.96
71107;BME280;58763;47.982;11.516;2023-04-28T08:50:05;93973.03;;;10.30;91.42
71107;BME280;58763;47.982;11.516;2023-04-28T08:52:31;93973.31;;;10.28;91.16
71107;BME280;58763;47.982;11.516;2023-04-28T08:54:58;93961.94;;;10.31;91.51
71107;BME280;58763;47.982;11.516;2023-04-28T08:57:26;93971.53;;;10.43;90.56
71107;BME280;58763;47.982;11.516;2023-04-28T08:59:52;93969.91;;;10.41;90.18
71107;BME280;58763;47.982;11.516;2023-04-28T09:02:18;93979.91;;;10.41;90.78
71107;BME280;58763;47.982;11.516;2023-04-28T09:04:46;93976.22;;;10.32;90.70
71107;BME280;58763;47.982;11.516;2023-04-28T09:07:12;93973.25;;;10.33;90.32
71107;BME280;58763;47.982;11.516;2023-04-28T09:09:38;93967.03;;;10.33;90.32
71107;BME280;58763;47.982;11.516;2023-04-28T09:12:05;93978.53;;;10.43;91.03
71107;BME280;58763;47.982;11.516;2023-04-28T09:14:32;93976.94;;;10.43;91.36
71107;BME280;58763;47.982;11.516;2023-04-28T09:16:58;93969.97;;;10.36;90.64
71107;BME280;58763;47.982;11.516;2023-04-28T09:19:31;93963.97;;;10.39;90.97
71107;BME280;58763;47.982;11.516;2023-04-28T09:21:58;93965.88;;;10.39;89.56
71107;BME280;58763;47.982;11.516;2023-04-28T09:24:44;93965.31;;;10.42;90.01
71107;BME280;58763;47.982;11.516;2023-04-28T09:27:11;93962.59;;;10.42;90.74
71107;BME280;58763;47.982;11.516;2023-04-28T09:29:37;93976.63;;;10.44;90.49
71107;BME280;58763;47.982;11.516;2023-04-28T09:34:48;93970.25;;;10.35;90.52
71107;BME280;58763;47.982;11.516;2023-04-28T09:37:18;93971.69;;;10.27;90.31
71107;BME280;58763;47.982;11.516;2023-04-28T09:39:48;93964.25;;;10.19;89.36
71107;BME280;58763;47.982;11.516;2023-04-28T09:42:37;93969.41;;;10.11;90.33
71107;BME280;58763;47.982;11.516;2023-04-28T09:45:06;93961.66;;;10.04;91.13
71107;BME280;58763;47.982;11.516;2023-04-28T09:47:33;93965.94;;;10.10;91.54
71107;BME280;58763;47.982;11.516;2023-04-28T09:50:04;93957.00;;;10.15;91.24
71107;BME280;58763;47.982;11.516;2023-04-28T09:52:34;93947.28;;;10.09;91.64
71107;BME280;58763;47.982;11.516;2023-04-28T09:55:02;93944.31;;;10.10;92.83
71107;BME280;58763;47.982;11.516;2023-04-28T09:57:30;93945.69;;;10.08;93.16
71107;BME280;58763;47.982;11.516;2023-04-28T09:59:59;93947.81;;;10.11;93.16
71107;BME280;58763;47.982;11.516;2023-04-28T10:02:25;93960.84;;;10.04;93.40
71107;BME280;58763;47.982;11.516;2023-04-28T10:04:51;93958.41;;;10.07;94.18
71107;BME280;58763;47.982;11.516;2023-04-28T10:07:18;93960.38;;;9.97;93.86
71107;BME280;58763;47.982;11.516;2023-04-28T10:09:48;93960.13;;;9.98;93.64
71107;BME280;58763;47.982;11.516;2023-04-28T10:12:19;93943.16;;;9.93;93.97
71107;BME280;58763;47.982;11.516;2023-04-28T10:14:45;93937.59;;;9.84;93.94
71107;BME280;58763;47.982;11.516;2023-04-28T10:17:15;93939.19;;;9.85;94.28
71107;BME280;58763;47.982;11.516;2023-04-28T10:19:43;93927.88;;;9.83;94.66
71107;BME280;58763;47.982;11.516;2023-04-28T10:27:46;93947.75;;;9.92;96.54
71107;BME280;58763;47.982;11.516;2023-04-28T10:30:17;93933.69;;;9.95;95.72
71107;BME280;58763;47.982;11.516;2023-04-28T10:32:43;93940.16;;;9.94;96.09
71107;BME280;58763;47.982;11.516;2023-04-28T10:38:09;93943.66;;;9.95;95.99
71107;BME280;58763;47.982;11.516;2023-04-28T10:40:45;93959.16;;;9.89;96.22
71107;BME280;58763;47.982;11.516;2023-04-28T10:43:33;93951.34;;;9.83;96.17
71107;BME280;58763;47.982;11.516;2023-04-28T10:56:25;93939.50;;;10.07;95.42
71107;BME280;58763;47.982;11.516;2023-04-28T11:11:44;93939.50;;;10.07;95.32
71107;BME280;58763;47.982;11.516;2023-04-28T11:17:01;93941.69;;;10.05;95.21
71107;BME280;58763;47.982;11.516;2023-04-28T11:19:53;93939.19;;;10.09;95.61
71107;BME280;58763;47.982;11.516;2023-04-28T11:22:21;93944.91;;;10.07;95.50
71107;BME280;58763;47.982;11.516;2023-04-28T11:25:14;93941.69;;;10.05;96.07
71107;BME280;58763;47.982;11.516;2023-04-28T11:27:39;93943.88;;;10.03;95.47
71107;BME280;58763;47.982;11.516;2023-04-28T11:30:19;93954.06;;;10.06;96.48
71107;BME280;58763;47.982;11.516;2023-04-28T11:32:48;93962.69;;;10.08;95.99
71107;BME280;58763;47.982;11.516;2023-04-28T11:35:13;93947.88;;;10.06;96.08
71107;BME280;58763;47.982;11.516;2023-04-28T11:37:39;93953.28;;;10.06;96.29
71107;BME280;58763;47.982;11.516;2023-04-28T11:40:12;93956.22;;;10.09;96.95
71107;BME280;58763;47.982;11.516;2023-04-28T11:42:46;93957.84;;;10.10;96.58
71107;BME280;58763;47.982;11.516;2023-04-28T11:45:12;93942.69;;;10.09;96.05
71107;BME280;58763;47.982;11.516;2023-04-28T11:47:38;93948.53;;;10.21;96.32
71107;BME280;58763;47.982;11.516;2023-04-28T11:50:03;93957.66;;;10.25;96.80
71107;BME280;58763;47.982;11.516;2023-04-28T11:52:29;93939.25;;;10.27;96.79
71107;BME280;58763;47.982;11.516;2023-04-28T11:54:58;93944.75;;;10.41;98.56
71107;BME280;58763;47.982;11.516;2023-04-28T11:57:26;93941.19;;;10.46;97.92
71107;BME280;58763;47.982;11.516;2023-04-28T11:59:51;93937.84;;;10.54;96.98
71107;BME280;58763;47.982;11.516;2023-04-28T12:02:27;93946.34;;;10.66;97.32
71107;BME280;58763;47.982;11.516;2023-04-28T12:04:55;93940.00;;;10.75;97.24
71107;BME280;58763;47.982;11.516;2023-04-28T12:07:20;93947.16;;;10.85;96.71
71107;BME280;58763;47.982;11.516;2023-04-28T12:12:29;93947.59;;;10.92;96.55
71107;BME280;58763;47.982;11.516;2023-04-28T12:15:05;93955.63;;;10.97;96.18
71107;BME280;58763;47.982;11.516;2023-04-28T12:17:39;93952.91;;;10.97;97.06
71107;BME280;58763;47.982;11.516;2023-04-28T12:20:07;93950.56;;;11.09;96.66
71107;BME280;58763;47.982;11.516;2023-04-28T12:22:44;93957.03;;;11.13;96.64
71107;BME280;58763;47.982;11.516;2023-04-28T12:25:12;93958.16;;;11.26;96.27
71107;BME280;58763;47.982;11.516;2023-04-28T12:27:38;93959.56;;;11.23;95.17
71107;BME280;58763;47.982;11.516;2023-04-28T12:32:45;93974.28;;;11.17;95.82
71107;BME280;58763;47.982;11.516;2023-04-28T12:35:11;93974.19;;;11.22;96.24
71107;BME280;58763;47.982;11.516;2023-04-28T12:37:36;93971.69;;;11.26;95.77
71107;BME280;58763;47.982;11.516;2023-04-28T12:40:06;93973.59;;;11.25;95.64
71107;BME280;58763;47.982;11.516;2023-04-28T12:42:32;93965.19;;;11.27;95.39
71107;BME280;58763;47.982;11.516;2023-04-28T12:44:58;93974.25;;;11.36;95.77
71107;BME280;58763;47.982;11.516;2023-04-28T12:47:23;93976.53;;;11.29;94.98
71107;BME280;58763;47.982;11.516;2023-04-28T12:49:49;93983.25;;;11.31;95.68
71107;BME280;58763;47.982;11.516;2023-04-28T12:52:20;93988.59;;;11.36;95.24
71107;BME280;58763;47.982;11.516;2023-04-28T12:54:47;93980.97;;;11.38;95.38
71107;BME280;58763;47.982;11.516;2023-04-28T12:57:16;93982.81;;;11.43;94.96
71107;BME280;58763;47.982;11.516;2023-04-28T12:59:42;93985.34;;;11.34;95.72
71107;BME280;58763;47.982;11.516;2023-04-28T13:02:07;93973.75;;;11.34;96.41
71107;BME280;58763;47.982;11.516;2023-04-28T13:04:33;93974.44;;;11.39;96.67
71107;BME280;58763;47.982;11.516;2023-04-28T13:06:58;93979.78;;;11.44;95.86
71107;BME280;58763;47.982;11.516;2023-04-28T13:09:24;93984.53;;;11.52;95.70
71107;BME280;58763;47.982;11.516;2023-04-28T13:11:51;93978.44;;;11.60;95.80
71107;BME280;58763;47.982;11.516;2023-04-28T13:14:18;93982.69;;;11.66;95.38
71107;BME280;58763;47.982;11.516;2023-04-28T13:16:44;93980.13;;;11.75;94.95
71107;BME280;58763;47.982;11.516;2023-04-28T13:19:10;93979.13;;;11.71;93.64
71107;BME280;58763;47.982;11.516;2023-04-28T13:21:38;93967.06;;;11.77;93.42
71107;BME280;58763;47.982;11.516;2023-04-28T13:24:05;93974.53;;;11.85;93.41
71107;BME280;58763;47.982;11.516;2023-04-28T13:26:31;93972.50;;;11.91;93.63
71107;BME280;58763;47.982;11.516;2023-04-28T13:28:57;93973.75;;;11.98;94.98
71107;BME280;58763;47.982;11.516;2023-04-28T13:31:22;93970.34;;;12.20;94.51
71107;BME280;58763;47.982;11.516;2023-04-28T13:33:48;93959.28;;;12.30;92.97
71107;BME280;58763;47.982;11.516;2023-04-28T13:36:13;93954.19;;;12.42;92.27